sensor_id;sensor_type;location;lat;lon;timestamp;P1;durP1;ratioP1;P2;durP2;ratioP2
52848;SDS011;38714;53.180;5.812;2023-04-07T00:01:15;10.68;;;7.97;;
52848;SDS011;38714;53.180;5.812;2023-04-07T00:03:41;9.13;;;7.22;;
52848;SDS011;38714;53.180;5.812;2023-04-07T00:06:08;8.05;;;7.15;;
52848;SDS011;38714;53.180;5.812;2023-04-07T00:08:34;7.43;;;6.10;;
52848;SDS011;38714;53.180;5.812;2023-04-07T00:11:00;9.30;;;6.28;;
52848;SDS011;38714;53.180;5.812;2023-04-07T00:13:25;11.10;;;7.15;;
52848;SDS011;38714;53.180;5.812;2023-04-07T00:15:51;9.10;;;8.23;;
52848;SDS011;38714;53.180;5.812;2023-04-07T00:18:17;13.30;;;7.50;;
52848;SDS011;38714;53.180;5.812;2023-04-07T00:20:42;8.38;;;7.03;;
52848;SDS011;38714;53.180;5.812;2023-04-07T00:23:08;9.68;;;8.13;;
52848;SDS011;38714;53.180;5.812;2023-04-07T00:25:33;8.00;;;6.55;;
52848;SDS011;38714;53.180;5.812;2023-04-07T00:27:59;12.27;;;8.10;;
52848;SDS011;38714;53.180;5.812;2023-04-07T00:30:25;8.73;;;7.88;;
52848;SDS011;38714;53.180;5.812;2023-04-07T00:32:50;11.20;;;8.20;;
52848;SDS011;38714;53.180;5.812;2023-04-07T00:35:16;10.73;;;7.95;;
52848;SDS011;38714;53.180;5.812;2023-04-07T00:37:42;11.07;;;7.93;;
52848;SDS011;38714;53.180;5.812;2023-04-07T00:40:08;10.73;;;7.85;;
52848;SDS011;38714;53.180;5.812;2023-04-07T00:42:34;11.45;;;9.23;;
52848;SDS011;38714;53.180;5.812;2023-04-07T00:44:59;9.13;;;8.20;;
52848;SDS011;38714;53.180;5.812;2023-04-07T00:47:25;7.70;;;6.95;;
52848;SDS011;38714;53.180;5.812;2023-04-07T00:49:51;11.38;;;8.32;;
52848;SDS011;38714;53.180;5.812;2023-04-07T00:52:17;9.90;;;6.50;;
52848;SDS011;38714;53.180;5.812;2023-04-07T00:54:51;8.90;;;7.32;;
52848;SDS011;38714;53.180;5.812;2023-04-07T00:57:21;10.35;;;7.55;;
52848;SDS011;38714;53.180;5.812;2023-04-07T00:59:47;8.02;;;7.15;;
52848;SDS011;38714;53.180;5.812;2023-04-07T01:02:35;8.48;;;6.07;;
52848;SDS011;38714;53.180;5.812;2023-04-07T01:05:33;10.25;;;8.10;;
52848;SDS011;38714;53.180;5.812;2023-04-07T01:08:19;12.15;;;9.48;;
52848;SDS011;38714;53.180;5.812;2023-04-07T01:13:51;10.93;;;8.57;;
52848;SDS011;38714;53.180;5.812;2023-04-07T01:16:22;10.90;;;7.75;;
52848;SDS011;38714;53.180;5.812;2023-04-07T01:18:54;8.15;;;7.03;;
52848;SDS011;38714;53.180;5.812;2023-04-07T01:21:28;9.35;;;6.75;;
52848;SDS011;38714;53.180;5.812;2023-04-07T01:24:08;11.15;;;7.22;;
52848;SDS011;38714;53.180;5.812;2023-04-07T01:26:36;10.43;;;7.75;;
52848;SDS011;38714;53.180;5.812;2023-04-07T01:31:47;11.98;;;7.70;;
52848;SDS011;38714;53.180;5.812;2023-04-07T01:34:14;13.27;;;9.45;;
52848;SDS011;38714;53.180;5.812;2023-04-07T01:36:41;9.23;;;7.00;;
52848;SDS011;38714;53.180;5.812;2023-04-07T01:39:07;10.50;;;7.78;;
52848;SDS011;38714;53.180;5.812;2023-04-07T01:41:34;11.40;;;7.05;;
52848;SDS011;38714;53.180;5.812;2023-04-07T01:44:01;11.48;;;8.52;;
52848;SDS011;38714;53.180;5.812;2023-04-07T01:46:28;8.05;;;7.13;;
52848;SDS011;38714;53.180;5.812;2023-04-07T01:48:54;13.32;;;9.00;;
52848;SDS011;38714;53.180;5.812;2023-04-07T01:51:20;8.60;;;7.53;;
52848;SDS011;38714;53.180;5.812;2023-04-07T01:53:47;15.60;;;7.47;;
52848;SDS011;38714;53.180;5.812;2023-04-07T01:56:14;14.63;;;10.43;;
52848;SDS011;38714;53.180;5.812;2023-04-07T01:58:40;11.93;;;7.60;;
52848;SDS011;38714;53.180;5.812;2023-04-07T02:01:06;10.35;;;8.90;;
52848;SDS011;38714;53.180;5.812;2023-04-07T02:03:39;11.55;;;5.75;;
52848;SDS011;38714;53.180;5.812;2023-04-07T02:06:17;13.73;;;9.18;;
52848;SDS011;38714;53.180;5.812;2023-04-07T02:08:46;11.63;;;8.13;;
52848;SDS011;38714;53.180;5.812;2023-04-07T02:11:16;14.05;;;7.15;;
52848;SDS011;38714;53.180;5.812;2023-04-07T02:13:45;7.60;;;6.82;;
52848;SDS011;38714;53.180;5.812;2023-04-07T02:16:11;9.13;;;6.07;;
52848;SDS011;38714;53.180;5.812;2023-04-07T02:18:37;12.32;;;7.50;;
52848;SDS011;38714;53.180;5.812;2023-04-07T02:21:04;8.05;;;5.88;;
52848;SDS011;38714;53.180;5.812;2023-04-07T02:23:33;8.60;;;7.60;;
52848;SDS011;38714;53.180;5.812;2023-04-07T02:25:59;8.73;;;7.47;;
52848;SDS011;38714;53.180;5.812;2023-04-07T02:28:25;8.98;;;7.60;;
52848;SDS011;38714;53.180;5.812;2023-04-07T02:30:50;11.10;;;6.90;;
52848;SDS011;38714;53.180;5.812;2023-04-07T02:33:16;9.63;;;6.25;;
52848;SDS011;38714;53.180;5.812;2023-04-07T02:35:42;7.28;;;6.13;;
52848;SDS011;38714;53.180;5.812;2023-04-07T02:38:07;7.65;;;6.20;;
52848;SDS011;38714;53.180;5.812;2023-04-07T02:40:33;8.60;;;7.68;;
52848;SDS011;38714;53.180;5.812;2023-04-07T02:43:00;10.40;;;7.10;;
52848;SDS011;38714;53.180;5.812;2023-04-07T02:45:26;7.93;;;5.95;;
52848;SDS011;38714;53.180;5.812;2023-04-07T02:47:51;8.27;;;4.93;;
52848;SDS011;38714;53.180;5.812;2023-04-07T02:50:17;6.32;;;5.13;;
52848;SDS011;38714;53.180;5.812;2023-04-07T02:52:43;8.23;;;5.38;;
52848;SDS011;38714;53.180;5.812;2023-04-07T02:55:08;5.97;;;5.38;;
52848;SDS011;38714;53.180;5.812;2023-04-07T02:57:34;5.57;;;5.05;;
52848;SDS011;38714;53.180;5.812;2023-04-07T03:00:00;7.70;;;3.88;;
52848;SDS011;38714;53.180;5.812;2023-04-07T03:02:25;8.38;;;5.28;;
52848;SDS011;38714;53.180;5.812;2023-04-07T03:04:51;8.80;;;5.03;;
52848;SDS011;38714;53.180;5.812;2023-04-07T03:07:17;9.07;;;4.53;;
52848;SDS011;38714;53.180;5.812;2023-04-07T03:09:43;6.70;;;3.83;;
52848;SDS011;38714;53.180;5.812;2023-04-07T03:12:08;7.55;;;3.38;;
52848;SDS011;38714;53.180;5.812;2023-04-07T03:14:34;6.43;;;4.63;;
52848;SDS011;38714;53.180;5.812;2023-04-07T03:17:00;7.93;;;5.10;;
52848;SDS011;38714;53.180;5.812;2023-04-07T03:19:25;10.10;;;6.68;;
52848;SDS011;38714;53.180;5.812;2023-04-07T03:21:51;9.63;;;6.47;;
52848;SDS011;38714;53.180;5.812;2023-04-07T03:24:17;8.15;;;5.38;;
52848;SDS011;38714;53.180;5.812;2023-04-07T03:26:42;7.15;;;5.63;;
52848;SDS011;38714;53.180;5.812;2023-04-07T03:29:08;11.02;;;6.30;;
52848;SDS011;38714;53.180;5.812;2023-04-07T03:31:33;9.75;;;6.22;;
52848;SDS011;38714;53.180;5.812;2023-04-07T03:34:00;13.88;;;6.47;;
52848;SDS011;38714;53.180;5.812;2023-04-07T03:36:25;13.30;;;6.57;;
52848;SDS011;38714;53.180;5.812;2023-04-07T03:38:52;13.18;;;6.38;;
52848;SDS011;38714;53.180;5.812;2023-04-07T03:41:17;8.32;;;6.30;;
52848;SDS011;38714;53.180;5.812;2023-04-07T03:43:43;12.15;;;7.63;;
52848;SDS011;38714;53.180;5.812;2023-04-07T03:46:08;14.30;;;8.55;;
52848;SDS011;38714;53.180;5.812;2023-04-07T03:48:34;11.45;;;5.95;;
52848;SDS011;38714;53.180;5.812;2023-04-07T03:50:59;10.85;;;7.22;;
52848;SDS011;38714;53.180;5.812;2023-04-07T03:53:25;12.15;;;7.30;;
52848;SDS011;38714;53.180;5.812;2023-04-07T03:55:51;11.43;;;6.72;;
52848;SDS011;38714;53.180;5.812;2023-04-07T03:58:17;10.23;;;6.30;;
52848;SDS011;38714;53.180;5.812;2023-04-07T04:00:42;12.18;;;5.30;;
52848;SDS011;38714;53.180;5.812;2023-04-07T04:03:08;8.80;;;7.10;;
52848;SDS011;38714;53.180;5.812;2023-04-07T04:05:34;9.10;;;6.97;;
52848;SDS011;38714;53.180;5.812;2023-04-07T04:08:00;12.25;;;7.07;;
52848;SDS011;38714;53.180;5.812;2023-04-07T04:10:25;9.07;;;6.35;;
52848;SDS011;38714;53.180;5.812;2023-04-07T04:12:51;11.40;;;7.57;;
52848;SDS011;38714;53.180;5.812;2023-04-07T04:15:17;8.80;;;5.72;;
52848;SDS011;38714;53.180;5.812;2023-04-07T04:17:42;10.82;;;7.93;;
52848;SDS011;38714;53.180;5.812;2023-04-07T04:20:08;11.23;;;7.28;;
52848;SDS011;38714;53.180;5.812;2023-04-07T04:22:34;8.73;;;7.43;;
52848;SDS011;38714;53.180;5.812;2023-04-07T04:25:00;10.10;;;6.53;;
52848;SDS011;38714;53.180;5.812;2023-04-07T04:27:26;8.35;;;7.32;;
52848;SDS011;38714;53.180;5.812;2023-04-07T04:29:51;11.40;;;7.13;;
52848;SDS011;38714;53.180;5.812;2023-04-07T04:32:17;13.85;;;7.55;;
52848;SDS011;38714;53.180;5.812;2023-04-07T04:34:43;8.38;;;7.50;;
52848;SDS011;38714;53.180;5.812;2023-04-07T04:37:09;11.77;;;8.43;;
52848;SDS011;38714;53.180;5.812;2023-04-07T04:39:35;8.80;;;6.85;;
52848;SDS011;38714;53.180;5.812;2023-04-07T04:42:01;9.80;;;6.63;;
52848;SDS011;38714;53.180;5.812;2023-04-07T04:44:27;11.90;;;6.57;;
52848;SDS011;38714;53.180;5.812;2023-04-07T04:46:54;8.00;;;6.32;;
52848;SDS011;38714;53.180;5.812;2023-04-07T04:49:20;8.60;;;6.28;;
52848;SDS011;38714;53.180;5.812;2023-04-07T04:51:45;9.07;;;5.75;;
52848;SDS011;38714;53.180;5.812;2023-04-07T04:54:11;11.25;;;6.15;;
52848;SDS011;38714;53.180;5.812;2023-04-07T04:56:37;10.63;;;7.45;;
52848;SDS011;38714;53.180;5.812;2023-04-07T04:59:03;8.43;;;6.40;;
52848;SDS011;38714;53.180;5.812;2023-04-07T05:01:28;12.20;;;7.35;;
52848;SDS011;38714;53.180;5.812;2023-04-07T05:03:54;11.90;;;9.48;;
52848;SDS011;38714;53.180;5.812;2023-04-07T05:06:20;8.75;;;7.70;;
52848;SDS011;38714;53.180;5.812;2023-04-07T05:08:46;8.68;;;6.43;;
52848;SDS011;38714;53.180;5.812;2023-04-07T05:11:11;17.58;;;7.47;;
52848;SDS011;38714;53.180;5.812;2023-04-07T05:13:37;10.35;;;6.13;;
52848;SDS011;38714;53.180;5.812;2023-04-07T05:16:05;9.18;;;7.35;;
52848;SDS011;38714;53.180;5.812;2023-04-07T05:18:31;13.32;;;6.85;;
52848;SDS011;38714;53.180;5.812;2023-04-07T05:20:57;10.20;;;7.78;;
52848;SDS011;38714;53.180;5.812;2023-04-07T05:23:22;17.00;;;6.90;;
52848;SDS011;38714;53.180;5.812;2023-04-07T05:25:48;9.90;;;8.05;;
52848;SDS011;38714;53.180;5.812;2023-04-07T05:28:14;11.43;;;8.55;;
52848;SDS011;38714;53.180;5.812;2023-04-07T05:30:40;9.00;;;7.03;;
52848;SDS011;38714;53.180;5.812;2023-04-07T05:33:05;10.55;;;7.22;;
52848;SDS011;38714;53.180;5.812;2023-04-07T05:35:31;9.18;;;6.30;;
52848;SDS011;38714;53.180;5.812;2023-04-07T05:37:56;11.40;;;6.93;;
52848;SDS011;38714;53.180;5.812;2023-04-07T05:40:22;10.27;;;6.38;;
52848;SDS011;38714;53.180;5.812;2023-04-07T05:42:48;8.32;;;6.43;;
52848;SDS011;38714;53.180;5.812;2023-04-07T05:45:14;9.43;;;8.25;;
52848;SDS011;38714;53.180;5.812;2023-04-07T05:47:40;11.02;;;7.75;;
52848;SDS011;38714;53.180;5.812;2023-04-07T05:50:05;7.45;;;6.70;;
52848;SDS011;38714;53.180;5.812;2023-04-07T05:52:31;9.85;;;5.88;;
52848;SDS011;38714;53.180;5.812;2023-04-07T05:54:57;12.35;;;7.68;;
52848;SDS011;38714;53.180;5.812;2023-04-07T05:57:22;9.10;;;6.75;;
52848;SDS011;38714;53.180;5.812;2023-04-07T05:59:48;8.23;;;6.93;;
52848;SDS011;38714;53.180;5.812;2023-04-07T06:02:14;10.95;;;7.07;;
52848;SDS011;38714;53.180;5.812;2023-04-07T06:04:39;9.68;;;6.47;;
52848;SDS011;38714;53.180;5.812;2023-04-07T06:07:05;9.43;;;7.38;;
52848;SDS011;38714;53.180;5.812;2023-04-07T06:09:31;8.68;;;6.20;;
52848;SDS011;38714;53.180;5.812;2023-04-07T06:11:57;8.77;;;6.30;;
52848;SDS011;38714;53.180;5.812;2023-04-07T06:14:23;11.63;;;9.27;;
52848;SDS011;38714;53.180;5.812;2023-04-07T06:16:50;9.38;;;7.35;;
52848;SDS011;38714;53.180;5.812;2023-04-07T06:19:15;9.45;;;6.90;;
52848;SDS011;38714;53.180;5.812;2023-04-07T06:21:41;9.10;;;6.95;;
52848;SDS011;38714;53.180;5.812;2023-04-07T06:24:06;10.07;;;6.32;;
52848;SDS011;38714;53.180;5.812;2023-04-07T06:26:32;7.75;;;6.32;;
52848;SDS011;38714;53.180;5.812;2023-04-07T06:28:58;9.63;;;5.57;;
52848;SDS011;38714;53.180;5.812;2023-04-07T06:31:24;6.45;;;5.68;;
52848;SDS011;38714;53.180;5.812;2023-04-07T06:33:50;9.35;;;6.00;;
52848;SDS011;38714;53.180;5.812;2023-04-07T06:36:15;7.30;;;4.65;;
52848;SDS011;38714;53.180;5.812;2023-04-07T06:38:41;5.10;;;3.88;;
52848;SDS011;38714;53.180;5.812;2023-04-07T06:41:07;9.35;;;6.38;;
52848;SDS011;38714;53.180;5.812;2023-04-07T06:43:36;7.35;;;4.50;;
52848;SDS011;38714;53.180;5.812;2023-04-07T06:46:02;6.82;;;5.13;;
52848;SDS011;38714;53.180;5.812;2023-04-07T06:48:28;6.82;;;5.30;;
52848;SDS011;38714;53.180;5.812;2023-04-07T06:50:53;7.28;;;4.32;;
52848;SDS011;38714;53.180;5.812;2023-04-07T06:53:19;7.20;;;4.47;;
52848;SDS011;38714;53.180;5.812;2023-04-07T06:55:44;9.63;;;4.90;;
52848;SDS011;38714;53.180;5.812;2023-04-07T06:58:10;6.35;;;4.82;;
52848;SDS011;38714;53.180;5.812;2023-04-07T07:00:36;7.03;;;5.53;;
52848;SDS011;38714;53.180;5.812;2023-04-07T07:03:01;6.38;;;5.10;;
52848;SDS011;38714;53.180;5.812;2023-04-07T07:05:27;6.88;;;4.65;;
52848;SDS011;38714;53.180;5.812;2023-04-07T07:07:53;8.23;;;4.97;;
52848;SDS011;38714;53.180;5.812;2023-04-07T07:10:19;6.65;;;5.38;;
52848;SDS011;38714;53.180;5.812;2023-04-07T07:12:46;6.00;;;4.07;;
52848;SDS011;38714;53.180;5.812;2023-04-07T07:15:12;8.25;;;5.38;;
52848;SDS011;38714;53.180;5.812;2023-04-07T07:17:38;8.20;;;4.50;;
52848;SDS011;38714;53.180;5.812;2023-04-07T07:20:04;7.53;;;4.35;;
52848;SDS011;38714;53.180;5.812;2023-04-07T07:22:30;6.78;;;4.40;;
52848;SDS011;38714;53.180;5.812;2023-04-07T07:24:55;7.97;;;4.75;;
52848;SDS011;38714;53.180;5.812;2023-04-07T07:27:21;6.88;;;5.38;;
52848;SDS011;38714;53.180;5.812;2023-04-07T07:29:46;5.55;;;4.25;;
52848;SDS011;38714;53.180;5.812;2023-04-07T07:32:12;5.47;;;4.30;;
52848;SDS011;38714;53.180;5.812;2023-04-07T07:34:38;6.50;;;4.45;;
52848;SDS011;38714;53.180;5.812;2023-04-07T07:37:03;7.40;;;5.25;;
52848;SDS011;38714;53.180;5.812;2023-04-07T07:39:29;7.63;;;4.25;;
52848;SDS011;38714;53.180;5.812;2023-04-07T07:41:54;4.20;;;3.45;;
52848;SDS011;38714;53.180;5.812;2023-04-07T07:44:21;5.70;;;3.60;;
52848;SDS011;38714;53.180;5.812;2023-04-07T07:46:48;5.93;;;4.50;;
52848;SDS011;38714;53.180;5.812;2023-04-07T07:49:14;6.07;;;4.82;;
52848;SDS011;38714;53.180;5.812;2023-04-07T07:51:39;6.25;;;3.72;;
52848;SDS011;38714;53.180;5.812;2023-04-07T07:54:05;5.28;;;4.03;;
52848;SDS011;38714;53.180;5.812;2023-04-07T07:56:31;6.60;;;4.93;;
52848;SDS011;38714;53.180;5.812;2023-04-07T07:58:56;5.97;;;4.20;;
52848;SDS011;38714;53.180;5.812;2023-04-07T08:01:23;5.60;;;4.97;;
52848;SDS011;38714;53.180;5.812;2023-04-07T08:03:48;5.30;;;3.78;;
52848;SDS011;38714;53.180;5.812;2023-04-07T08:06:14;5.63;;;4.07;;
52848;SDS011;38714;53.180;5.812;2023-04-07T08:08:40;5.30;;;4.57;;
52848;SDS011;38714;53.180;5.812;2023-04-07T08:11:06;6.30;;;4.22;;
52848;SDS011;38714;53.180;5.812;2023-04-07T08:13:31;7.28;;;4.93;;
52848;SDS011;38714;53.180;5.812;2023-04-07T08:15:57;5.97;;;4.32;;
52848;SDS011;38714;53.180;5.812;2023-04-07T08:18:22;6.63;;;5.38;;
52848;SDS011;38714;53.180;5.812;2023-04-07T08:20:49;8.43;;;5.13;;
52848;SDS011;38714;53.180;5.812;2023-04-07T08:23:15;7.70;;;5.28;;
52848;SDS011;38714;53.180;5.812;2023-04-07T08:25:41;7.25;;;4.25;;
52848;SDS011;38714;53.180;5.812;2023-04-07T08:28:07;9.50;;;5.38;;
52848;SDS011;38714;53.180;5.812;2023-04-07T08:30:32;6.70;;;4.45;;
52848;SDS011;38714;53.180;5.812;2023-04-07T08:32:58;8.00;;;3.60;;
52848;SDS011;38714;53.180;5.812;2023-04-07T08:35:23;7.25;;;4.63;;
52848;SDS011;38714;53.180;5.812;2023-04-07T08:37:49;6.18;;;5.47;;
52848;SDS011;38714;53.180;5.812;2023-04-07T08:40:15;4.47;;;3.92;;
52848;SDS011;38714;53.180;5.812;2023-04-07T08:42:46;6.88;;;5.45;;
52848;SDS011;38714;53.180;5.812;2023-04-07T08:45:13;7.82;;;4.40;;
52848;SDS011;38714;53.180;5.812;2023-04-07T08:47:41;6.55;;;4.88;;
52848;SDS011;38714;53.180;5.812;2023-04-07T08:50:08;5.53;;;4.93;;
52848;SDS011;38714;53.180;5.812;2023-04-07T08:52:45;7.00;;;4.28;;
52848;SDS011;38714;53.180;5.812;2023-04-07T08:55:13;5.18;;;4.32;;
52848;SDS011;38714;53.180;5.812;2023-04-07T08:57:40;7.78;;;5.55;;
52848;SDS011;38714;53.180;5.812;2023-04-07T09:00:06;10.98;;;6.22;;
52848;SDS011;38714;53.180;5.812;2023-04-07T09:02:37;6.72;;;3.88;;
52848;SDS011;38714;53.180;5.812;2023-04-07T09:05:04;8.35;;;6.07;;
52848;SDS011;38714;53.180;5.812;2023-04-07T09:07:31;7.18;;;5.53;;
52848;SDS011;38714;53.180;5.812;2023-04-07T09:09:58;9.43;;;3.70;;
52848;SDS011;38714;53.180;5.812;2023-04-07T09:12:26;8.90;;;5.88;;
52848;SDS011;38714;53.180;5.812;2023-04-07T09:14:52;7.30;;;4.88;;
52848;SDS011;38714;53.180;5.812;2023-04-07T09:17:19;7.10;;;5.13;;
52848;SDS011;38714;53.180;5.812;2023-04-07T09:19:45;8.80;;;5.57;;
52848;SDS011;38714;53.180;5.812;2023-04-07T09:22:12;10.73;;;6.70;;
52848;SDS011;38714;53.180;5.812;2023-04-07T09:24:39;8.30;;;6.25;;
52848;SDS011;38714;53.180;5.812;2023-04-07T09:27:12;8.20;;;5.45;;
52848;SDS011;38714;53.180;5.812;2023-04-07T09:29:40;9.45;;;6.78;;
52848;SDS011;38714;53.180;5.812;2023-04-07T09:32:07;11.27;;;6.78;;
52848;SDS011;38714;53.180;5.812;2023-04-07T09:34:36;9.23;;;6.05;;
52848;SDS011;38714;53.180;5.812;2023-04-07T09:37:03;10.00;;;5.85;;
52848;SDS011;38714;53.180;5.812;2023-04-07T09:39:31;10.18;;;8.00;;
52848;SDS011;38714;53.180;5.812;2023-04-07T09:41:57;10.40;;;6.40;;
52848;SDS011;38714;53.180;5.812;2023-04-07T09:44:23;8.90;;;5.32;;
52848;SDS011;38714;53.180;5.812;2023-04-07T09:46:56;10.85;;;6.70;;
52848;SDS011;38714;53.180;5.812;2023-04-07T09:49:23;7.68;;;6.15;;
52848;SDS011;38714;53.180;5.812;2023-04-07T09:52:00;7.28;;;5.72;;
52848;SDS011;38714;53.180;5.812;2023-04-07T09:57:07;9.57;;;5.13;;
52848;SDS011;38714;53.180;5.812;2023-04-07T09:59:35;8.40;;;5.90;;
52848;SDS011;38714;53.180;5.812;2023-04-07T10:02:02;7.38;;;4.93;;
52848;SDS011;38714;53.180;5.812;2023-04-07T10:04:28;11.35;;;5.63;;
52848;SDS011;38714;53.180;5.812;2023-04-07T10:06:55;7.50;;;4.82;;
52848;SDS011;38714;53.180;5.812;2023-04-07T10:09:22;6.40;;;4.47;;
52848;SDS011;38714;53.180;5.812;2023-04-07T10:11:49;6.43;;;4.93;;
52848;SDS011;38714;53.180;5.812;2023-04-07T10:14:16;6.65;;;4.88;;
52848;SDS011;38714;53.180;5.812;2023-04-07T10:16:43;7.53;;;4.90;;
52848;SDS011;38714;53.180;5.812;2023-04-07T10:19:10;5.63;;;5.05;;
52848;SDS011;38714;53.180;5.812;2023-04-07T10:21:38;7.28;;;5.03;;
52848;SDS011;38714;53.180;5.812;2023-04-07T10:24:09;5.43;;;4.30;;
52848;SDS011;38714;53.180;5.812;2023-04-07T10:26:55;6.10;;;4.25;;
52848;SDS011;38714;53.180;5.812;2023-04-07T10:29:26;4.55;;;3.60;;
52848;SDS011;38714;53.180;5.812;2023-04-07T10:31:58;6.65;;;3.50;;
52848;SDS011;38714;53.180;5.812;2023-04-07T10:37:22;6.53;;;3.60;;
52848;SDS011;38714;53.180;5.812;2023-04-07T10:39:50;8.25;;;4.20;;
52848;SDS011;38714;53.180;5.812;2023-04-07T10:45:04;5.45;;;3.85;;
52848;SDS011;38714;53.180;5.812;2023-04-07T10:47:30;8.25;;;5.10;;
52848;SDS011;38714;53.180;5.812;2023-04-07T10:52:42;5.80;;;3.53;;
52848;SDS011;38714;53.180;5.812;2023-04-07T10:55:29;4.70;;;3.67;;
52848;SDS011;38714;53.180;5.812;2023-04-07T11:03:24;4.72;;;3.80;;
52848;SDS011;38714;53.180;5.812;2023-04-07T11:05:51;4.97;;;3.42;;
52848;SDS011;38714;53.180;5.812;2023-04-07T11:08:33;7.55;;;4.30;;
52848;SDS011;38714;53.180;5.812;2023-04-07T11:10:58;5.18;;;3.70;;
52848;SDS011;38714;53.180;5.812;2023-04-07T11:13:24;5.03;;;3.45;;
52848;SDS011;38714;53.180;5.812;2023-04-07T11:15:51;6.82;;;4.35;;
52848;SDS011;38714;53.180;5.812;2023-04-07T11:18:18;7.32;;;4.47;;
52848;SDS011;38714;53.180;5.812;2023-04-07T11:20:50;5.07;;;3.78;;
52848;SDS011;38714;53.180;5.812;2023-04-07T11:23:17;8.95;;;4.22;;
52848;SDS011;38714;53.180;5.812;2023-04-07T11:25:48;6.15;;;3.13;;
52848;SDS011;38714;53.180;5.812;2023-04-07T11:28:15;3.83;;;2.85;;
52848;SDS011;38714;53.180;5.812;2023-04-07T11:30:45;7.65;;;2.50;;
52848;SDS011;38714;53.180;5.812;2023-04-07T11:33:16;5.07;;;3.70;;
52848;SDS011;38714;53.180;5.812;2023-04-07T11:35:54;5.05;;;3.40;;
52848;SDS011;38714;53.180;5.812;2023-04-07T11:38:22;5.63;;;3.33;;
52848;SDS011;38714;53.180;5.812;2023-04-07T11:40:49;5.22;;;3.47;;
52848;SDS011;38714;53.180;5.812;2023-04-07T11:43:16;6.35;;;4.43;;
52848;SDS011;38714;53.180;5.812;2023-04-07T11:45:42;4.30;;;2.25;;
52848;SDS011;38714;53.180;5.812;2023-04-07T11:48:41;6.10;;;2.90;;
52848;SDS011;38714;53.180;5.812;2023-04-07T11:51:00;4.85;;;3.28;;
52848;SDS011;38714;53.180;5.812;2023-04-07T11:53:28;3.00;;;2.17;;
52848;SDS011;38714;53.180;5.812;2023-04-07T11:56:06;4.90;;;2.47;;
52848;SDS011;38714;53.180;5.812;2023-04-07T11:58:34;2.80;;;2.15;;
52848;SDS011;38714;53.180;5.812;2023-04-07T12:01:02;3.78;;;2.28;;
52848;SDS011;38714;53.180;5.812;2023-04-07T12:03:33;5.13;;;2.57;;
52848;SDS011;38714;53.180;5.812;2023-04-07T12:05:59;4.60;;;3.50;;
52848;SDS011;38714;53.180;5.812;2023-04-07T12:08:35;4.63;;;2.60;;
52848;SDS011;38714;53.180;5.812;2023-04-07T12:11:05;4.88;;;2.40;;
52848;SDS011;38714;53.180;5.812;2023-04-07T12:13:32;3.42;;;2.67;;
52848;SDS011;38714;53.180;5.812;2023-04-07T12:15:58;4.53;;;2.90;;
52848;SDS011;38714;53.180;5.812;2023-04-07T12:18:24;5.45;;;2.83;;
52848;SDS011;38714;53.180;5.812;2023-04-07T12:20:51;4.63;;;3.28;;
52848;SDS011;38714;53.180;5.812;2023-04-07T12:23:16;4.32;;;2.78;;
52848;SDS011;38714;53.180;5.812;2023-04-07T12:25:42;6.97;;;3.45;;
52848;SDS011;38714;53.180;5.812;2023-04-07T12:28:07;3.72;;;2.45;;
52848;SDS011;38714;53.180;5.812;2023-04-07T12:30:33;3.60;;;1.52;;
52848;SDS011;38714;53.180;5.812;2023-04-07T12:32:58;3.88;;;1.88;;
52848;SDS011;38714;53.180;5.812;2023-04-07T12:35:24;5.15;;;2.20;;
52848;SDS011;38714;53.180;5.812;2023-04-07T12:37:50;4.05;;;2.10;;
52848;SDS011;38714;53.180;5.812;2023-04-07T12:40:17;2.42;;;1.95;;
52848;SDS011;38714;53.180;5.812;2023-04-07T12:42:42;2.63;;;2.30;;
52848;SDS011;38714;53.180;5.812;2023-04-07T12:45:08;4.50;;;2.92;;
52848;SDS011;38714;53.180;5.812;2023-04-07T12:47:34;4.60;;;1.95;;
52848;SDS011;38714;53.180;5.812;2023-04-07T12:49:59;4.72;;;2.50;;
52848;SDS011;38714;53.180;5.812;2023-04-07T12:52:26;3.85;;;2.40;;
52848;SDS011;38714;53.180;5.812;2023-04-07T12:54:51;3.67;;;2.13;;
52848;SDS011;38714;53.180;5.812;2023-04-07T12:57:17;4.38;;;2.90;;
52848;SDS011;38714;53.180;5.812;2023-04-07T12:59:43;4.70;;;2.35;;
52848;SDS011;38714;53.180;5.812;2023-04-07T13:02:10;3.80;;;2.75;;
52848;SDS011;38714;53.180;5.812;2023-04-07T13:04:37;3.85;;;2.50;;
52848;SDS011;38714;53.180;5.812;2023-04-07T13:07:07;5.47;;;3.55;;
52848;SDS011;38714;53.180;5.812;2023-04-07T13:09:33;5.32;;;2.75;;
52848;SDS011;38714;53.180;5.812;2023-04-07T13:11:59;3.08;;;2.30;;
52848;SDS011;38714;53.180;5.812;2023-04-07T13:14:25;3.65;;;2.53;;
52848;SDS011;38714;53.180;5.812;2023-04-07T13:16:51;4.60;;;2.90;;
52848;SDS011;38714;53.180;5.812;2023-04-07T13:19:17;3.75;;;2.85;;
52848;SDS011;38714;53.180;5.812;2023-04-07T13:21:42;3.05;;;1.90;;
52848;SDS011;38714;53.180;5.812;2023-04-07T13:24:08;3.53;;;2.15;;
52848;SDS011;38714;53.180;5.812;2023-04-07T13:26:34;4.30;;;2.15;;
52848;SDS011;38714;53.180;5.812;2023-04-07T13:29:00;2.42;;;1.90;;
52848;SDS011;38714;53.180;5.812;2023-04-07T13:31:26;3.72;;;1.88;;
52848;SDS011;38714;53.180;5.812;2023-04-07T13:33:51;3.97;;;2.67;;
52848;SDS011;38714;53.180;5.812;2023-04-07T13:36:17;5.07;;;2.13;;
52848;SDS011;38714;53.180;5.812;2023-04-07T13:38:43;3.13;;;1.55;;
52848;SDS011;38714;53.180;5.812;2023-04-07T13:41:08;2.92;;;1.92;;
52848;SDS011;38714;53.180;5.812;2023-04-07T13:43:34;2.90;;;2.33;;
52848;SDS011;38714;53.180;5.812;2023-04-07T13:45:59;3.00;;;2.03;;
52848;SDS011;38714;53.180;5.812;2023-04-07T13:48:25;4.07;;;2.58;;
52848;SDS011;38714;53.180;5.812;2023-04-07T13:50:50;4.30;;;2.60;;
52848;SDS011;38714;53.180;5.812;2023-04-07T13:53:16;2.20;;;1.48;;
52848;SDS011;38714;53.180;5.812;2023-04-07T13:55:41;2.78;;;2.20;;
52848;SDS011;38714;53.180;5.812;2023-04-07T13:58:07;3.90;;;2.42;;
52848;SDS011;38714;53.180;5.812;2023-04-07T14:00:33;4.07;;;2.88;;
52848;SDS011;38714;53.180;5.812;2023-04-07T14:02:59;3.03;;;1.77;;
52848;SDS011;38714;53.180;5.812;2023-04-07T14:05:25;2.72;;;2.00;;
52848;SDS011;38714;53.180;5.812;2023-04-07T14:07:51;4.75;;;2.45;;
52848;SDS011;38714;53.180;5.812;2023-04-07T14:10:16;3.33;;;2.45;;
52848;SDS011;38714;53.180;5.812;2023-04-07T14:12:42;4.80;;;2.70;;
52848;SDS011;38714;53.180;5.812;2023-04-07T14:15:08;2.95;;;2.13;;
52848;SDS011;38714;53.180;5.812;2023-04-07T14:17:34;3.35;;;2.53;;
52848;SDS011;38714;53.180;5.812;2023-04-07T14:19:59;4.38;;;2.70;;
52848;SDS011;38714;53.180;5.812;2023-04-07T14:22:25;2.90;;;2.03;;
52848;SDS011;38714;53.180;5.812;2023-04-07T14:24:50;5.25;;;2.70;;
52848;SDS011;38714;53.180;5.812;2023-04-07T14:27:16;13.40;;;2.88;;
52848;SDS011;38714;53.180;5.812;2023-04-07T14:29:45;4.20;;;2.28;;
52848;SDS011;38714;53.180;5.812;2023-04-07T14:32:11;4.55;;;2.15;;
52848;SDS011;38714;53.180;5.812;2023-04-07T14:34:37;3.28;;;1.92;;
52848;SDS011;38714;53.180;5.812;2023-04-07T14:37:02;3.47;;;2.60;;
52848;SDS011;38714;53.180;5.812;2023-04-07T14:39:28;3.13;;;1.88;;
52848;SDS011;38714;53.180;5.812;2023-04-07T14:41:54;3.58;;;2.28;;
52848;SDS011;38714;53.180;5.812;2023-04-07T14:44:19;4.75;;;2.00;;
52848;SDS011;38714;53.180;5.812;2023-04-07T14:46:46;3.63;;;1.83;;
52848;SDS011;38714;53.180;5.812;2023-04-07T14:49:12;2.78;;;1.90;;
52848;SDS011;38714;53.180;5.812;2023-04-07T14:51:38;4.68;;;2.55;;
52848;SDS011;38714;53.180;5.812;2023-04-07T14:54:04;3.75;;;1.75;;
52848;SDS011;38714;53.180;5.812;2023-04-07T14:56:30;5.60;;;3.03;;
52848;SDS011;38714;53.180;5.812;2023-04-07T14:58:55;5.82;;;2.35;;
52848;SDS011;38714;53.180;5.812;2023-04-07T15:01:21;3.13;;;2.00;;
52848;SDS011;38714;53.180;5.812;2023-04-07T15:03:47;5.10;;;2.63;;
52848;SDS011;38714;53.180;5.812;2023-04-07T15:06:15;4.07;;;2.40;;